sensor_id;sensor_type;location;lat;lon;timestamp;P1;durP1;ratioP1;P2;durP2;ratioP2
12912;SDS011;6524;51.368;11.984;2023-05-07T00:06:02;12.25;;;10.77;;
12912;SDS011;6524;51.368;11.984;2023-05-07T00:11:06;12.55;;;11.02;;
12912;SDS011;6524;51.368;11.984;2023-05-07T00:16:07;12.18;;;10.88;;
12912;SDS011;6524;51.368;11.984;2023-05-07T00:21:08;11.57;;;10.38;;
12912;SDS011;6524;51.368;11.984;2023-05-07T00:26:11;12.18;;;10.88;;
12912;SDS011;6524;51.368;11.984;2023-05-07T00:31:11;12.77;;;11.10;;
12912;SDS011;6524;51.368;11.984;2023-05-07T00:36:12;13.10;;;10.65;;
12912;SDS011;6524;51.368;11.984;2023-05-07T04:02:50;13.77;;;12.38;;
12912;SDS011;6524;51.368;11.984;2023-05-07T04:07:50;13.57;;;12.18;;
12912;SDS011;6524;51.368;11.984;2023-05-07T04:12:51;13.52;;;12.13;;
12912;SDS011;6524;51.368;11.984;2023-05-07T04:17:51;14.25;;;12.77;;
12912;SDS011;6524;51.368;11.984;2023-05-07T04:22:51;14.35;;;12.80;;
12912;SDS011;6524;51.368;11.984;2023-05-07T04:27:52;14.00;;;12.38;;
12912;SDS011;6524;51.368;11.984;2023-05-07T04:32:52;14.10;;;12.68;;
12912;SDS011;6524;51.368;11.984;2023-05-07T04:37:56;14.00;;;12.60;;
12912;SDS011;6524;51.368;11.984;2023-05-07T04:42:56;13.38;;;12.00;;
12912;SDS011;6524;51.368;11.984;2023-05-07T04:47:56;15.23;;;13.23;;
12912;SDS011;6524;51.368;11.984;2023-05-07T04:52:57;15.25;;;13.43;;
12912;SDS011;6524;51.368;11.984;2023-05-07T04:57:57;16.98;;;14.23;;
12912;SDS011;6524;51.368;11.984;2023-05-07T05:02:57;15.43;;;13.20;;
12912;SDS011;6524;51.368;11.984;2023-05-07T05:07:57;16.00;;;13.60;;
12912;SDS011;6524;51.368;11.984;2023-05-07T05:12:58;15.95;;;13.80;;
12912;SDS011;6524;51.368;11.984;2023-05-07T05:17:58;17.20;;;13.98;;
12912;SDS011;6524;51.368;11.984;2023-05-07T05:22:59;16.08;;;14.23;;
12912;SDS011;6524;51.368;11.984;2023-05-07T05:27:59;15.30;;;13.40;;
12912;SDS011;6524;51.368;11.984;2023-05-07T05:32:59;15.50;;;13.32;;
12912;SDS011;6524;51.368;11.984;2023-05-07T05:38:00;14.15;;;12.65;;
12912;SDS011;6524;51.368;11.984;2023-05-07T05:43:01;16.65;;;14.25;;
12912;SDS011;6524;51.368;11.984;2023-05-07T05:48:01;13.53;;;12.13;;
12912;SDS011;6524;51.368;11.984;2023-05-07T05:53:01;15.35;;;11.73;;
12912;SDS011;6524;51.368;11.984;2023-05-07T05:58:02;12.60;;;11.25;;
12912;SDS011;6524;51.368;11.984;2023-05-07T06:03:02;12.00;;;10.80;;
12912;SDS011;6524;51.368;11.984;2023-05-07T06:08:03;13.30;;;11.90;;
12912;SDS011;6524;51.368;11.984;2023-05-07T06:13:22;13.55;;;11.55;;
12912;SDS011;6524;51.368;11.984;2023-05-07T06:18:23;13.18;;;11.68;;
12912;SDS011;6524;51.368;11.984;2023-05-07T06:23:23;12.23;;;10.95;;
12912;SDS011;6524;51.368;11.984;2023-05-07T06:28:23;12.82;;;11.48;;
12912;SDS011;6524;51.368;11.984;2023-05-07T06:33:24;11.85;;;10.63;;
12912;SDS011;6524;51.368;11.984;2023-05-07T06:38:24;12.07;;;10.88;;
12912;SDS011;6524;51.368;11.984;2023-05-07T06:43:25;12.07;;;10.88;;
12912;SDS011;6524;51.368;11.984;2023-05-07T06:48:25;11.60;;;10.40;;
12912;SDS011;6524;51.368;11.984;2023-05-07T06:53:25;11.15;;;10.02;;
12912;SDS011;6524;51.368;11.984;2023-05-07T06:58:26;10.73;;;9.63;;
12912;SDS011;6524;51.368;11.984;2023-05-07T07:03:26;10.35;;;9.35;;
12912;SDS011;6524;51.368;11.984;2023-05-07T07:08:27;9.95;;;8.95;;
12912;SDS011;6524;51.368;11.984;2023-05-07T07:13:27;11.00;;;8.93;;
12912;SDS011;6524;51.368;11.984;2023-05-07T07:18:27;10.13;;;9.13;;
12912;SDS011;6524;51.368;11.984;2023-05-07T07:23:28;9.75;;;8.70;;
12912;SDS011;6524;51.368;11.984;2023-05-07T07:28:28;8.95;;;8.05;;
12912;SDS011;6524;51.368;11.984;2023-05-07T07:33:28;9.95;;;8.95;;
12912;SDS011;6524;51.368;11.984;2023-05-07T07:38:29;9.97;;;8.97;;
12912;SDS011;6524;51.368;11.984;2023-05-07T07:43:29;8.88;;;7.97;;
12912;SDS011;6524;51.368;11.984;2023-05-07T07:48:30;9.93;;;8.70;;
12912;SDS011;6524;51.368;11.984;2023-05-07T07:53:30;9.48;;;8.55;;
12912;SDS011;6524;51.368;11.984;2023-05-07T07:58:31;9.80;;;8.80;;
12912;SDS011;6524;51.368;11.984;2023-05-07T08:03:31;10.50;;;9.13;;
12912;SDS011;6524;51.368;11.984;2023-05-07T08:08:32;10.00;;;9.00;;
12912;SDS011;6524;51.368;11.984;2023-05-07T08:13:32;9.98;;;8.98;;
12912;SDS011;6524;51.368;11.984;2023-05-07T08:18:33;10.30;;;9.15;;
12912;SDS011;6524;51.368;11.984;2023-05-07T08:23:33;10.47;;;9.37;;
12912;SDS011;6524;51.368;11.984;2023-05-07T08:28:34;9.27;;;8.07;;
12912;SDS011;6524;51.368;11.984;2023-05-07T08:33:35;9.57;;;8.57;;
12912;SDS011;6524;51.368;11.984;2023-05-07T08:38:35;9.32;;;8.00;;
12912;SDS011;6524;51.368;11.984;2023-05-07T08:43:35;8.63;;;7.82;;
12912;SDS011;6524;51.368;11.984;2023-05-07T08:48:37;8.38;;;7.57;;
12912;SDS011;6524;51.368;11.984;2023-05-07T08:53:39;8.57;;;7.78;;
12912;SDS011;6524;51.368;11.984;2023-05-07T08:58:41;8.57;;;7.68;;
12912;SDS011;6524;51.368;11.984;2023-05-07T09:03:46;8.70;;;7.88;;
12912;SDS011;6524;51.368;11.984;2023-05-07T09:08:50;9.27;;;8.48;;
12912;SDS011;6524;51.368;11.984;2023-05-07T09:13:55;8.40;;;7.70;;
12912;SDS011;6524;51.368;11.984;2023-05-07T09:18:58;8.30;;;7.60;;
12912;SDS011;6524;51.368;11.984;2023-05-07T09:24:00;8.63;;;7.82;;
12912;SDS011;6524;51.368;11.984;2023-05-07T09:29:00;7.97;;;7.28;;
12912;SDS011;6524;51.368;11.984;2023-05-07T09:34:01;7.40;;;6.70;;
12912;SDS011;6524;51.368;11.984;2023-05-07T09:39:02;7.35;;;6.72;;
12912;SDS011;6524;51.368;11.984;2023-05-07T09:44:02;6.97;;;6.30;;
12912;SDS011;6524;51.368;11.984;2023-05-07T09:49:03;6.50;;;5.90;;
12912;SDS011;6524;51.368;11.984;2023-05-07T09:54:09;7.18;;;6.57;;
12912;SDS011;6524;51.368;11.984;2023-05-07T09:59:14;7.38;;;6.68;;
12912;SDS011;6524;51.368;11.984;2023-05-07T10:04:15;7.45;;;6.85;;
12912;SDS011;6524;51.368;11.984;2023-05-07T10:09:16;7.82;;;7.13;;
12912;SDS011;6524;51.368;11.984;2023-05-07T10:14:19;7.10;;;6.50;;
12912;SDS011;6524;51.368;11.984;2023-05-07T10:19:21;7.07;;;6.47;;
12912;SDS011;6524;51.368;11.984;2023-05-07T10:24:25;7.35;;;6.75;;
12912;SDS011;6524;51.368;11.984;2023-05-07T10:34:34;7.78;;;7.07;;
12912;SDS011;6524;51.368;11.984;2023-05-07T10:39:37;7.93;;;7.22;;
12912;SDS011;6524;51.368;11.984;2023-05-07T10:44:38;8.05;;;7.35;;
12912;SDS011;6524;51.368;11.984;2023-05-07T10:54:43;7.93;;;7.22;;
12912;SDS011;6524;51.368;11.984;2023-05-07T10:59:44;8.20;;;7.50;;
12912;SDS011;6524;51.368;11.984;2023-05-07T11:04:45;8.23;;;7.53;;
12912;SDS011;6524;51.368;11.984;2023-05-07T11:14:55;7.38;;;6.78;;
12912;SDS011;6524;51.368;11.984;2023-05-07T11:19:56;6.47;;;5.90;;
12912;SDS011;6524;51.368;11.984;2023-05-07T11:24:57;6.25;;;5.65;;
12912;SDS011;6524;51.368;11.984;2023-05-07T11:29:59;6.60;;;6.00;;
12912;SDS011;6524;51.368;11.984;2023-05-07T11:35:01;6.80;;;6.20;;
12912;SDS011;6524;51.368;11.984;2023-05-07T11:40:05;6.20;;;5.70;;
12912;SDS011;6524;51.368;11.984;2023-05-07T11:45:08;5.60;;;5.10;;
12912;SDS011;6524;51.368;11.984;2023-05-07T11:50:09;6.20;;;5.70;;
12912;SDS011;6524;51.368;11.984;2023-05-07T11:55:13;6.47;;;5.88;;
12912;SDS011;6524;51.368;11.984;2023-05-07T12:00:18;6.72;;;6.13;;
12912;SDS011;6524;51.368;11.984;2023-05-07T12:05:18;7.25;;;6.65;;
12912;SDS011;6524;51.368;11.984;2023-05-07T12:10:19;7.40;;;6.77;;
12912;SDS011;6524;51.368;11.984;2023-05-07T12:15:22;7.13;;;6.53;;
12912;SDS011;6524;51.368;11.984;2023-05-07T12:20:22;6.70;;;6.10;;
12912;SDS011;6524;51.368;11.984;2023-05-07T12:25:23;7.40;;;6.70;;
12912;SDS011;6524;51.368;11.984;2023-05-07T12:30:24;6.80;;;6.20;;
12912;SDS011;6524;51.368;11.984;2023-05-07T12:35:39;7.47;;;6.78;;
12912;SDS011;6524;51.368;11.984;2023-05-07T12:40:53;7.20;;;6.50;;
12912;SDS011;6524;51.368;11.984;2023-05-07T12:45:55;8.07;;;7.38;;
12912;SDS011;6524;51.368;11.984;2023-05-07T12:50:57;6.20;;;5.60;;
12912;SDS011;6524;51.368;11.984;2023-05-07T12:56:03;6.70;;;6.10;;
12912;SDS011;6524;51.368;11.984;2023-05-07T13:01:06;6.55;;;5.97;;
12912;SDS011;6524;51.368;11.984;2023-05-07T13:06:09;6.60;;;6.00;;
12912;SDS011;6524;51.368;11.984;2023-05-07T13:11:10;9.05;;;7.30;;
12912;SDS011;6524;51.368;11.984;2023-05-07T13:16:11;6.70;;;6.20;;
12912;SDS011;6524;51.368;11.984;2023-05-07T13:21:12;6.43;;;5.82;;
12912;SDS011;6524;51.368;11.984;2023-05-07T13:26:13;10.38;;;6.78;;
12912;SDS011;6524;51.368;11.984;2023-05-07T13:31:13;7.10;;;6.40;;
12912;SDS011;6524;51.368;11.984;2023-05-07T13:36:14;7.72;;;7.03;;
12912;SDS011;6524;51.368;11.984;2023-05-07T13:41:14;6.60;;;6.00;;
12912;SDS011;6524;51.368;11.984;2023-05-07T13:46:15;7.15;;;6.45;;
12912;SDS011;6524;51.368;11.984;2023-05-07T13:51:16;6.18;;;5.68;;
12912;SDS011;6524;51.368;11.984;2023-05-07T13:56:16;6.45;;;5.70;;
12912;SDS011;6524;51.368;11.984;2023-05-07T14:01:17;6.43;;;5.82;;
12912;SDS011;6524;51.368;11.984;2023-05-07T14:06:17;6.07;;;5.57;;
12912;SDS011;6524;51.368;11.984;2023-05-07T14:11:18;6.10;;;5.60;;
12912;SDS011;6524;51.368;11.984;2023-05-07T14:16:19;6.15;;;5.65;;
12912;SDS011;6524;51.368;11.984;2023-05-07T14:21:19;5.88;;;5.10;;
12912;SDS011;6524;51.368;11.984;2023-05-07T14:26:20;6.82;;;5.07;;
12912;SDS011;6524;51.368;11.984;2023-05-07T14:31:20;5.57;;;5.13;;
12912;SDS011;6524;51.368;11.984;2023-05-07T14:36:21;6.30;;;5.47;;
12912;SDS011;6524;51.368;11.984;2023-05-07T14:41:22;6.22;;;5.15;;
12912;SDS011;6524;51.368;11.984;2023-05-07T14:46:23;4.90;;;4.50;;
12912;SDS011;6524;51.368;11.984;2023-05-07T14:51:24;5.40;;;4.90;;
12912;SDS011;6524;51.368;11.984;2023-05-07T14:56:26;5.10;;;4.70;;
12912;SDS011;6524;51.368;11.984;2023-05-07T15:01:26;5.18;;;4.63;;
12912;SDS011;6524;51.368;11.984;2023-05-07T15:06:27;4.65;;;4.20;;
12912;SDS011;6524;51.368;11.984;2023-05-07T15:11:27;4.63;;;4.22;;
12912;SDS011;6524;51.368;11.984;2023-05-07T15:16:28;4.50;;;4.10;;
12912;SDS011;6524;51.368;11.984;2023-05-07T15:21:28;4.40;;;4.00;;
12912;SDS011;6524;51.368;11.984;2023-05-07T15:26:30;4.20;;;3.90;;
12912;SDS011;6524;51.368;11.984;2023-05-07T15:31:31;4.15;;;3.85;;
12912;SDS011;6524;51.368;11.984;2023-05-07T15:36:32;4.47;;;4.07;;
12912;SDS011;6524;51.368;11.984;2023-05-07T15:41:32;4.45;;;3.72;;
12912;SDS011;6524;51.368;11.984;2023-05-07T15:46:33;4.38;;;3.97;;
12912;SDS011;6524;51.368;11.984;2023-05-07T15:51:34;4.35;;;3.97;;
12912;SDS011;6524;51.368;11.984;2023-05-07T15:56:35;4.60;;;4.20;;
12912;SDS011;6524;51.368;11.984;2023-05-07T16:01:35;4.00;;;3.60;;
12912;SDS011;6524;51.368;11.984;2023-05-07T16:06:36;4.00;;;3.58;;
12912;SDS011;6524;51.368;11.984;2023-05-07T16:11:36;4.60;;;4.20;;
12912;SDS011;6524;51.368;11.984;2023-05-07T16:16:37;4.47;;;4.07;;
12912;SDS011;6524;51.368;11.984;2023-05-07T16:21:39;4.07;;;3.75;;
12912;SDS011;6524;51.368;11.984;2023-05-07T16:26:40;4.57;;;4.18;;
12912;SDS011;6524;51.368;11.984;2023-05-07T16:31:40;4.45;;;4.05;;
12912;SDS011;6524;51.368;11.984;2023-05-07T16:36:41;5.05;;;4.65;;
12912;SDS011;6524;51.368;11.984;2023-05-07T16:41:41;5.33;;;4.73;;
12912;SDS011;6524;51.368;11.984;2023-05-07T16:46:42;5.78;;;5.28;;
12912;SDS011;6524;51.368;11.984;2023-05-07T16:51:43;7.40;;;5.30;;
12912;SDS011;6524;51.368;11.984;2023-05-07T16:56:45;6.07;;;5.32;;
12912;SDS011;6524;51.368;11.984;2023-05-07T17:01:45;6.38;;;5.70;;
12912;SDS011;6524;51.368;11.984;2023-05-07T17:06:45;6.50;;;5.90;;
12912;SDS011;6524;51.368;11.984;2023-05-07T17:11:46;6.72;;;5.93;;
12912;SDS011;6524;51.368;11.984;2023-05-07T17:16:46;6.70;;;6.10;;
12912;SDS011;6524;51.368;11.984;2023-05-07T17:21:46;7.10;;;6.40;;
12912;SDS011;6524;51.368;11.984;2023-05-07T17:26:47;7.20;;;6.50;;
12912;SDS011;6524;51.368;11.984;2023-05-07T17:31:47;6.50;;;5.90;;
12912;SDS011;6524;51.368;11.984;2023-05-07T17:36:51;7.45;;;6.75;;
12912;SDS011;6524;51.368;11.984;2023-05-07T17:41:51;6.65;;;6.05;;
12912;SDS011;6524;51.368;11.984;2023-05-07T17:46:52;6.88;;;6.28;;
12912;SDS011;6524;51.368;11.984;2023-05-07T17:51:52;6.97;;;6.28;;
12912;SDS011;6524;51.368;11.984;2023-05-07T17:56:53;7.18;;;6.57;;
12912;SDS011;6524;51.368;11.984;2023-05-07T18:01:53;8.02;;;6.85;;
12912;SDS011;6524;51.368;11.984;2023-05-07T18:06:54;7.47;;;6.70;;
12912;SDS011;6524;51.368;11.984;2023-05-07T18:11:56;6.70;;;6.10;;
12912;SDS011;6524;51.368;11.984;2023-05-07T18:16:56;7.30;;;6.50;;
12912;SDS011;6524;51.368;11.984;2023-05-07T18:21:56;7.75;;;6.90;;
12912;SDS011;6524;51.368;11.984;2023-05-07T18:26:57;7.10;;;6.43;;
12912;SDS011;6524;51.368;11.984;2023-05-07T18:31:57;7.35;;;6.70;;
12912;SDS011;6524;51.368;11.984;2023-05-07T18:36:58;7.25;;;6.55;;
12912;SDS011;6524;51.368;11.984;2023-05-07T18:41:58;7.65;;;6.95;;
12912;SDS011;6524;51.368;11.984;2023-05-07T18:46:58;7.25;;;6.55;;
12912;SDS011;6524;51.368;11.984;2023-05-07T18:51:59;7.80;;;6.95;;
12912;SDS011;6524;51.368;11.984;2023-05-07T18:57:00;7.90;;;7.05;;
12912;SDS011;6524;51.368;11.984;2023-05-07T19:02:02;7.60;;;6.90;;
12912;SDS011;6524;51.368;11.984;2023-05-07T19:07:02;7.50;;;6.80;;
12912;SDS011;6524;51.368;11.984;2023-05-07T19:12:03;6.68;;;6.07;;
12912;SDS011;6524;51.368;11.984;2023-05-07T19:17:04;7.03;;;6.43;;
12912;SDS011;6524;51.368;11.984;2023-05-07T19:22:04;7.07;;;6.38;;
12912;SDS011;6524;51.368;11.984;2023-05-07T19:27:05;7.30;;;6.60;;
12912;SDS011;6524;51.368;11.984;2023-05-07T19:32:05;7.00;;;6.40;;
12912;SDS011;6524;51.368;11.984;2023-05-07T19:37:05;7.25;;;6.55;;
12912;SDS011;6524;51.368;11.984;2023-05-07T19:42:06;7.72;;;6.93;;
12912;SDS011;6524;51.368;11.984;2023-05-07T19:47:06;7.38;;;6.68;;
12912;SDS011;6524;51.368;11.984;2023-05-07T19:52:08;7.38;;;6.68;;
12912;SDS011;6524;51.368;11.984;2023-05-07T19:57:08;7.55;;;6.85;;
12912;SDS011;6524;51.368;11.984;2023-05-07T20:02:09;8.30;;;7.50;;
12912;SDS011;6524;51.368;11.984;2023-05-07T20:07:11;7.80;;;7.10;;
12912;SDS011;6524;51.368;11.984;2023-05-07T20:12:11;7.88;;;7.18;;
12912;SDS011;6524;51.368;11.984;2023-05-07T20:17:11;7.70;;;7.05;;
12912;SDS011;6524;51.368;11.984;2023-05-07T20:22:12;8.55;;;7.80;;
12912;SDS011;6524;51.368;11.984;2023-05-07T20:27:12;7.72;;;7.03;;
12912;SDS011;6524;51.368;11.984;2023-05-07T20:32:12;7.50;;;6.80;;
12912;SDS011;6524;51.368;11.984;2023-05-07T20:37:14;7.85;;;7.15;;
12912;SDS011;6524;51.368;11.984;2023-05-07T20:42:14;7.28;;;6.60;;
12912;SDS011;6524;51.368;11.984;2023-05-07T20:47:15;6.75;;;6.15;;
12912;SDS011;6524;51.368;11.984;2023-05-07T20:52:15;7.47;;;6.78;;
12912;SDS011;6524;51.368;11.984;2023-05-07T20:57:16;7.30;;;6.60;;
12912;SDS011;6524;51.368;11.984;2023-05-07T21:02:18;6.72;;;6.22;;
12912;SDS011;6524;51.368;11.984;2023-05-07T21:07:18;7.65;;;6.95;;
12912;SDS011;6524;51.368;11.984;2023-05-07T21:12:20;7.95;;;7.20;;
12912;SDS011;6524;51.368;11.984;2023-05-07T21:17:21;7.18;;;6.47;;
12912;SDS011;6524;51.368;11.984;2023-05-07T21:22:22;7.07;;;6.47;;
12912;SDS011;6524;51.368;11.984;2023-05-07T21:27:22;7.25;;;6.55;;
12912;SDS011;6524;51.368;11.984;2023-05-07T21:32:23;7.60;;;6.90;;
12912;SDS011;6524;51.368;11.984;2023-05-07T21:37:23;7.20;;;6.50;;
12912;SDS011;6524;51.368;11.984;2023-05-07T21:42:24;7.82;;;7.13;;
12912;SDS011;6524;51.368;11.984;2023-05-07T21:47:24;7.55;;;6.85;;
12912;SDS011;6524;51.368;11.984;2023-05-07T21:52:25;7.28;;;6.68;;
12912;SDS011;6524;51.368;11.984;2023-05-07T21:57:25;6.82;;;6.22;;
12912;SDS011;6524;51.368;11.984;2023-05-07T22:02:26;7.80;;;7.10;;
12912;SDS011;6524;51.368;11.984;2023-05-07T22:07:26;8.10;;;7.30;;
12912;SDS011;6524;51.368;11.984;2023-05-07T22:12:27;7.57;;;6.88;;
12912;SDS011;6524;51.368;11.984;2023-05-07T22:17:27;7.15;;;6.45;;
12912;SDS011;6524;51.368;11.984;2023-05-07T22:22:27;7.70;;;7.00;;
12912;SDS011;6524;51.368;11.984;2023-05-07T22:27:28;8.38;;;7.57;;
12912;SDS011;6524;51.368;11.984;2023-05-07T22:32:30;7.82;;;7.13;;
12912;SDS011;6524;51.368;11.984;2023-05-07T22:37:30;8.30;;;7.50;;
12912;SDS011;6524;51.368;11.984;2023-05-07T22:42:30;8.32;;;7.57;;
12912;SDS011;6524;51.368;11.984;2023-05-07T22:47:31;7.68;;;6.97;;
12912;SDS011;6524;51.368;11.984;2023-05-07T22:52:34;8.20;;;7.30;;
12912;SDS011;6524;51.368;11.984;2023-05-07T22:57:35;8.40;;;7.60;;
12912;SDS011;6524;51.368;11.984;2023-05-07T23:02:35;8.32;;;7.50;;
12912;SDS011;6524;51.368;11.984;2023-05-07T23:07:36;8.57;;;7.78;;
12912;SDS011;6524;51.368;11.984;2023-05-07T23:12:37;8.00;;;7.22;;
12912;SDS011;6524;51.368;11.984;2023-05-07T23:17:37;8.38;;;7.57;;
12912;SDS011;6524;51.368;11.984;2023-05-07T23:22:38;9.27;;;8.02;;
12912;SDS011;6524;51.368;11.984;2023-05-07T23:27:39;7.93;;;7.22;;
12912;SDS011;6524;51.368;11.984;2023-05-07T23:32:40;8.18;;;7.38;;
12912;SDS011;6524;51.368;11.984;2023-05-07T23:37:40;8.73;;;7.68;;
12912;SDS011;6524;51.368;11.984;2023-05-07T23:42:41;9.20;;;7.63;;
12912;SDS011;6524;51.368;11.984;2023-05-07T23:47:41;8.75;;;6.95;;
12912;SDS011;6524;51.368;11.984;2023-05-07T23:52:42;7.93;;;7.13;;
12912;SDS011;6524;51.368;11.984;2023-05-07T23:57:43;8.00;;;7.20;;
